sensor_id;sensor_type;location;lat;lon;timestamp;P1;durP1;ratioP1;P2;durP2;ratioP2
20179;SDS011;10249;48.900;9.090;2024-02-28T00:00:34;7.60;;;7.40;;
20179;SDS011;10249;48.900;9.090;2024-02-28T00:03:03;7.57;;;7.37;;
20179;SDS011;10249;48.900;9.090;2024-02-28T00:05:30;7.67;;;7.47;;
20179;SDS011;10249;48.900;9.090;2024-02-28T00:07:57;8.50;;;8.20;;
20179;SDS011;10249;48.900;9.090;2024-02-28T00:10:24;8.20;;;7.90;;
20179;SDS011;10249;48.900;9.090;2024-02-28T00:12:51;8.40;;;8.10;;
20179;SDS011;10249;48.900;9.090;2024-02-28T00:15:19;8.30;;;8.00;;
20179;SDS011;10249;48.900;9.090;2024-02-28T00:17:46;8.23;;;7.93;;
20179;SDS011;10249;48.900;9.090;2024-02-28T00:20:13;8.20;;;7.90;;
20179;SDS011;10249;48.900;9.090;2024-02-28T00:22:40;8.20;;;7.90;;
20179;SDS011;10249;48.900;9.090;2024-02-28T00:25:09;7.90;;;7.70;;
20179;SDS011;10249;48.900;9.090;2024-02-28T00:27:38;8.47;;;8.17;;
20179;SDS011;10249;48.900;9.090;2024-02-28T00:30:06;7.73;;;7.53;;
20179;SDS011;10249;48.900;9.090;2024-02-28T00:32:33;8.13;;;7.93;;
20179;SDS011;10249;48.900;9.090;2024-02-28T00:35:00;10.97;;;10.57;;
20179;SDS011;10249;48.900;9.090;2024-02-28T00:37:29;8.60;;;8.30;;
20179;SDS011;10249;48.900;9.090;2024-02-28T00:39:56;7.30;;;7.10;;
20179;SDS011;10249;48.900;9.090;2024-02-28T00:42:23;7.00;;;6.80;;
20179;SDS011;10249;48.900;9.090;2024-02-28T00:44:50;7.07;;;6.87;;
20179;SDS011;10249;48.900;9.090;2024-02-28T00:47:17;7.13;;;6.93;;
20179;SDS011;10249;48.900;9.090;2024-02-28T00:49:44;7.33;;;7.13;;
20179;SDS011;10249;48.900;9.090;2024-02-28T00:52:11;8.13;;;7.83;;
20179;SDS011;10249;48.900;9.090;2024-02-28T00:54:40;6.60;;;6.40;;
20179;SDS011;10249;48.900;9.090;2024-02-28T00:57:07;7.63;;;7.43;;
20179;SDS011;10249;48.900;9.090;2024-02-28T00:59:34;7.67;;;7.43;;
20179;SDS011;10249;48.900;9.090;2024-02-28T01:02:01;7.40;;;7.20;;
20179;SDS011;10249;48.900;9.090;2024-02-28T01:04:29;7.00;;;6.80;;
20179;SDS011;10249;48.900;9.090;2024-02-28T01:06:56;6.77;;;6.57;;
20179;SDS011;10249;48.900;9.090;2024-02-28T01:09:23;7.10;;;6.90;;
20179;SDS011;10249;48.900;9.090;2024-02-28T01:11:51;7.27;;;7.07;;
20179;SDS011;10249;48.900;9.090;2024-02-28T01:14:18;7.30;;;7.10;;
20179;SDS011;10249;48.900;9.090;2024-02-28T01:16:45;9.40;;;9.00;;
20179;SDS011;10249;48.900;9.090;2024-02-28T01:19:14;8.00;;;7.30;;
20179;SDS011;10249;48.900;9.090;2024-02-28T01:21:41;6.90;;;6.70;;
20179;SDS011;10249;48.900;9.090;2024-02-28T01:24:08;9.23;;;8.70;;
20179;SDS011;10249;48.900;9.090;2024-02-28T01:26:36;7.97;;;7.67;;
20179;SDS011;10249;48.900;9.090;2024-02-28T01:29:04;9.20;;;8.70;;
20179;SDS011;10249;48.900;9.090;2024-02-28T01:31:31;9.50;;;8.97;;
20179;SDS011;10249;48.900;9.090;2024-02-28T01:33:58;9.60;;;9.03;;
20179;SDS011;10249;48.900;9.090;2024-02-28T01:36:25;9.33;;;8.63;;
20179;SDS011;10249;48.900;9.090;2024-02-28T01:38:53;8.10;;;7.80;;
20179;SDS011;10249;48.900;9.090;2024-02-28T01:41:20;6.90;;;6.70;;
20179;SDS011;10249;48.900;9.090;2024-02-28T01:43:47;6.73;;;6.53;;
20179;SDS011;10249;48.900;9.090;2024-02-28T01:46:20;8.40;;;8.00;;
20179;SDS011;10249;48.900;9.090;2024-02-28T01:48:48;7.97;;;7.70;;
20179;SDS011;10249;48.900;9.090;2024-02-28T01:51:15;6.70;;;6.50;;
20179;SDS011;10249;48.900;9.090;2024-02-28T01:53:42;8.30;;;8.00;;
20179;SDS011;10249;48.900;9.090;2024-02-28T01:56:10;6.80;;;6.60;;
20179;SDS011;10249;48.900;9.090;2024-02-28T01:58:38;7.93;;;7.63;;
20179;SDS011;10249;48.900;9.090;2024-02-28T02:01:05;7.97;;;7.67;;
20179;SDS011;10249;48.900;9.090;2024-02-28T02:03:34;6.83;;;6.63;;
20179;SDS011;10249;48.900;9.090;2024-02-28T02:06:02;7.10;;;6.90;;
20179;SDS011;10249;48.900;9.090;2024-02-28T02:08:30;6.97;;;6.77;;
20179;SDS011;10249;48.900;9.090;2024-02-28T02:10:57;6.90;;;6.70;;
20179;SDS011;10249;48.900;9.090;2024-02-28T02:13:24;7.27;;;7.07;;
20179;SDS011;10249;48.900;9.090;2024-02-28T02:15:51;7.03;;;6.83;;
20179;SDS011;10249;48.900;9.090;2024-02-28T02:18:18;7.83;;;7.63;;
20179;SDS011;10249;48.900;9.090;2024-02-28T02:20:48;7.10;;;6.90;;
20179;SDS011;10249;48.900;9.090;2024-02-28T02:23:17;7.13;;;6.93;;
20179;SDS011;10249;48.900;9.090;2024-02-28T02:25:44;6.80;;;6.60;;
20179;SDS011;10249;48.900;9.090;2024-02-28T02:28:11;7.70;;;7.50;;
20179;SDS011;10249;48.900;9.090;2024-02-28T02:30:38;7.23;;;7.03;;
20179;SDS011;10249;48.900;9.090;2024-02-28T02:33:06;7.70;;;7.40;;
20179;SDS011;10249;48.900;9.090;2024-02-28T02:35:33;6.70;;;6.50;;
20179;SDS011;10249;48.900;9.090;2024-02-28T02:38:00;6.60;;;6.40;;
20179;SDS011;10249;48.900;9.090;2024-02-28T02:40:29;13.63;;;7.60;;
20179;SDS011;10249;48.900;9.090;2024-02-28T02:42:56;7.33;;;6.83;;
20179;SDS011;10249;48.900;9.090;2024-02-28T02:45:23;6.87;;;6.67;;
20179;SDS011;10249;48.900;9.090;2024-02-28T02:47:50;6.97;;;6.77;;
20179;SDS011;10249;48.900;9.090;2024-02-28T02:50:17;7.17;;;6.97;;
20179;SDS011;10249;48.900;9.090;2024-02-28T02:52:44;8.80;;;8.20;;
20179;SDS011;10249;48.900;9.090;2024-02-28T02:55:11;8.50;;;8.10;;
20179;SDS011;10249;48.900;9.090;2024-02-28T02:57:41;6.20;;;6.00;;
20179;SDS011;10249;48.900;9.090;2024-02-28T03:00:09;7.07;;;6.87;;
20179;SDS011;10249;48.900;9.090;2024-02-28T03:02:36;6.40;;;6.20;;
20179;SDS011;10249;48.900;9.090;2024-02-28T03:05:05;6.70;;;6.50;;
20179;SDS011;10249;48.900;9.090;2024-02-28T03:07:32;6.93;;;6.73;;
20179;SDS011;10249;48.900;9.090;2024-02-28T03:09:59;9.03;;;8.53;;
20179;SDS011;10249;48.900;9.090;2024-02-28T03:12:28;9.03;;;8.07;;
20179;SDS011;10249;48.900;9.090;2024-02-28T03:14:56;8.70;;;7.90;;
20179;SDS011;10249;48.900;9.090;2024-02-28T03:17:23;6.27;;;6.07;;
20179;SDS011;10249;48.900;9.090;2024-02-28T03:19:51;7.33;;;7.13;;
20179;SDS011;10249;48.900;9.090;2024-02-28T03:22:18;6.33;;;6.13;;
20179;SDS011;10249;48.900;9.090;2024-02-28T03:24:45;7.60;;;7.33;;
20179;SDS011;10249;48.900;9.090;2024-02-28T03:27:14;7.87;;;7.43;;
20179;SDS011;10249;48.900;9.090;2024-02-28T03:29:41;6.27;;;6.07;;
20179;SDS011;10249;48.900;9.090;2024-02-28T03:32:10;7.00;;;6.70;;
20179;SDS011;10249;48.900;9.090;2024-02-28T03:34:38;7.50;;;7.30;;
20179;SDS011;10249;48.900;9.090;2024-02-28T03:37:05;6.97;;;6.67;;
20179;SDS011;10249;48.900;9.090;2024-02-28T03:39:32;7.63;;;7.33;;
20179;SDS011;10249;48.900;9.090;2024-02-28T03:41:59;6.83;;;6.63;;
20179;SDS011;10249;48.900;9.090;2024-02-28T03:44:26;7.83;;;7.23;;
20179;SDS011;10249;48.900;9.090;2024-02-28T03:46:53;7.70;;;7.30;;
20179;SDS011;10249;48.900;9.090;2024-02-28T03:49:22;9.97;;;9.27;;
20179;SDS011;10249;48.900;9.090;2024-02-28T03:51:49;7.90;;;7.60;;
20179;SDS011;10249;48.900;9.090;2024-02-28T03:54:16;7.30;;;6.90;;
20179;SDS011;10249;48.900;9.090;2024-02-28T03:56:43;7.10;;;6.83;;
20179;SDS011;10249;48.900;9.090;2024-02-28T03:59:10;7.60;;;7.30;;
20179;SDS011;10249;48.900;9.090;2024-02-28T04:01:37;6.43;;;6.23;;
20179;SDS011;10249;48.900;9.090;2024-02-28T04:04:04;9.20;;;8.57;;
20179;SDS011;10249;48.900;9.090;2024-02-28T04:06:34;8.40;;;8.10;;
20179;SDS011;10249;48.900;9.090;2024-02-28T04:09:01;8.00;;;7.60;;
20179;SDS011;10249;48.900;9.090;2024-02-28T04:11:28;6.73;;;6.53;;
20179;SDS011;10249;48.900;9.090;2024-02-28T04:13:56;6.47;;;6.27;;
20179;SDS011;10249;48.900;9.090;2024-02-28T04:16:23;7.40;;;7.17;;
20179;SDS011;10249;48.900;9.090;2024-02-28T04:18:50;8.03;;;7.77;;
20179;SDS011;10249;48.900;9.090;2024-02-28T04:21:17;6.80;;;6.60;;
20179;SDS011;10249;48.900;9.090;2024-02-28T04:23:45;9.03;;;8.53;;
20179;SDS011;10249;48.900;9.090;2024-02-28T04:26:12;6.43;;;6.23;;
20179;SDS011;10249;48.900;9.090;2024-02-28T04:28:40;8.67;;;8.23;;
20179;SDS011;10249;48.900;9.090;2024-02-28T04:31:08;7.33;;;7.03;;
20179;SDS011;10249;48.900;9.090;2024-02-28T04:33:35;7.60;;;7.30;;
20179;SDS011;10249;48.900;9.090;2024-02-28T04:36:02;6.27;;;6.07;;
20179;SDS011;10249;48.900;9.090;2024-02-28T04:38:30;6.60;;;6.40;;
20179;SDS011;10249;48.900;9.090;2024-02-28T04:40:58;6.53;;;6.33;;
20179;SDS011;10249;48.900;9.090;2024-02-28T04:43:25;6.87;;;6.57;;
20179;SDS011;10249;48.900;9.090;2024-02-28T04:45:54;8.47;;;7.90;;
20179;SDS011;10249;48.900;9.090;2024-02-28T04:48:21;7.50;;;7.27;;
20179;SDS011;10249;48.900;9.090;2024-02-28T04:50:48;10.27;;;9.87;;
20179;SDS011;10249;48.900;9.090;2024-02-28T04:53:15;6.70;;;6.50;;
20179;SDS011;10249;48.900;9.090;2024-02-28T04:55:42;8.37;;;7.97;;
20179;SDS011;10249;48.900;9.090;2024-02-28T04:58:10;7.43;;;7.23;;
20179;SDS011;10249;48.900;9.090;2024-02-28T05:00:38;7.10;;;6.90;;
20179;SDS011;10249;48.900;9.090;2024-02-28T05:03:05;7.10;;;6.80;;
20179;SDS011;10249;48.900;9.090;2024-02-28T05:05:32;8.30;;;8.00;;
20179;SDS011;10249;48.900;9.090;2024-02-28T05:08:00;7.53;;;7.23;;
20179;SDS011;10249;48.900;9.090;2024-02-28T05:10:27;8.83;;;8.37;;
20179;SDS011;10249;48.900;9.090;2024-02-28T05:12:54;7.57;;;7.27;;
20179;SDS011;10249;48.900;9.090;2024-02-28T05:15:22;11.37;;;10.33;;
20179;SDS011;10249;48.900;9.090;2024-02-28T05:17:50;10.17;;;9.57;;
20179;SDS011;10249;48.900;9.090;2024-02-28T05:20:17;6.30;;;6.10;;
20179;SDS011;10249;48.900;9.090;2024-02-28T05:22:44;8.50;;;7.97;;
20179;SDS011;10249;48.900;9.090;2024-02-28T05:25:11;9.43;;;8.83;;
20179;SDS011;10249;48.900;9.090;2024-02-28T05:27:38;9.17;;;8.77;;
20179;SDS011;10249;48.900;9.090;2024-02-28T05:30:06;11.17;;;10.23;;
20179;SDS011;10249;48.900;9.090;2024-02-28T05:32:34;9.77;;;8.90;;
20179;SDS011;10249;48.900;9.090;2024-02-28T05:35:02;8.47;;;8.07;;
20179;SDS011;10249;48.900;9.090;2024-02-28T05:37:29;13.07;;;10.80;;
20179;SDS011;10249;48.900;9.090;2024-02-28T05:39:56;9.73;;;9.07;;
20179;SDS011;10249;48.900;9.090;2024-02-28T05:42:23;11.23;;;10.53;;
20179;SDS011;10249;48.900;9.090;2024-02-28T05:44:50;7.47;;;7.17;;
20179;SDS011;10249;48.900;9.090;2024-02-28T05:47:18;6.50;;;6.30;;
20179;SDS011;10249;48.900;9.090;2024-02-28T05:49:46;7.40;;;7.10;;
20179;SDS011;10249;48.900;9.090;2024-02-28T05:52:13;8.70;;;8.30;;
20179;SDS011;10249;48.900;9.090;2024-02-28T05:54:41;9.67;;;9.17;;
20179;SDS011;10249;48.900;9.090;2024-02-28T05:57:08;8.40;;;8.00;;
20179;SDS011;10249;48.900;9.090;2024-02-28T05:59:35;6.70;;;6.50;;
20179;SDS011;10249;48.900;9.090;2024-02-28T06:02:02;8.37;;;7.93;;
20179;SDS011;10249;48.900;9.090;2024-02-28T06:04:30;11.30;;;10.47;;
20179;SDS011;10249;48.900;9.090;2024-02-28T06:07:00;7.80;;;7.30;;
20179;SDS011;10249;48.900;9.090;2024-02-28T06:09:27;10.43;;;9.90;;
20179;SDS011;10249;48.900;9.090;2024-02-28T06:11:54;7.87;;;7.67;;
20179;SDS011;10249;48.900;9.090;2024-02-28T06:14:21;8.00;;;7.70;;
20179;SDS011;10249;48.900;9.090;2024-02-28T06:16:48;7.53;;;7.33;;
20179;SDS011;10249;48.900;9.090;2024-02-28T06:19:15;8.20;;;7.93;;
20179;SDS011;10249;48.900;9.090;2024-02-28T06:21:43;8.67;;;8.30;;
20179;SDS011;10249;48.900;9.090;2024-02-28T06:24:11;9.67;;;9.27;;
20179;SDS011;10249;48.900;9.090;2024-02-28T06:26:39;8.97;;;8.47;;
20179;SDS011;10249;48.900;9.090;2024-02-28T06:29:07;8.80;;;8.40;;
20179;SDS011;10249;48.900;9.090;2024-02-28T06:31:34;6.90;;;6.70;;
20179;SDS011;10249;48.900;9.090;2024-02-28T06:34:01;8.10;;;7.80;;
20179;SDS011;10249;48.900;9.090;2024-02-28T06:36:33;7.80;;;7.50;;
20179;SDS011;10249;48.900;9.090;2024-02-28T06:39:03;7.83;;;7.53;;
20179;SDS011;10249;48.900;9.090;2024-02-28T06:41:33;7.50;;;7.30;;
20179;SDS011;10249;48.900;9.090;2024-02-28T06:44:00;7.20;;;7.00;;
20179;SDS011;10249;48.900;9.090;2024-02-28T06:46:27;8.97;;;8.27;;
20179;SDS011;10249;48.900;9.090;2024-02-28T06:48:54;11.50;;;10.70;;
20179;SDS011;10249;48.900;9.090;2024-02-28T06:51:21;8.20;;;7.90;;
20179;SDS011;10249;48.900;9.090;2024-02-28T06:53:48;7.80;;;7.60;;
20179;SDS011;10249;48.900;9.090;2024-02-28T06:56:16;11.60;;;11.10;;
20179;SDS011;10249;48.900;9.090;2024-02-28T06:58:45;7.10;;;6.90;;
20179;SDS011;10249;48.900;9.090;2024-02-28T07:01:14;10.77;;;10.23;;
20179;SDS011;10249;48.900;9.090;2024-02-28T07:03:41;9.20;;;8.70;;
20179;SDS011;10249;48.900;9.090;2024-02-28T07:06:09;6.63;;;6.43;;
20179;SDS011;10249;48.900;9.090;2024-02-28T07:08:36;9.87;;;9.37;;
20179;SDS011;10249;48.900;9.090;2024-02-28T07:11:03;9.03;;;8.70;;
20179;SDS011;10249;48.900;9.090;2024-02-28T07:13:31;7.43;;;7.23;;
20179;SDS011;10249;48.900;9.090;2024-02-28T07:15:59;7.47;;;7.27;;
20179;SDS011;10249;48.900;9.090;2024-02-28T07:18:26;7.00;;;6.80;;
20179;SDS011;10249;48.900;9.090;2024-02-28T07:20:57;6.90;;;6.70;;
20179;SDS011;10249;48.900;9.090;2024-02-28T07:23:26;6.83;;;6.63;;
20179;SDS011;10249;48.900;9.090;2024-02-28T07:25:53;7.00;;;6.80;;
20179;SDS011;10249;48.900;9.090;2024-02-28T07:28:20;7.00;;;6.80;;
20179;SDS011;10249;48.900;9.090;2024-02-28T07:30:48;7.00;;;6.80;;
20179;SDS011;10249;48.900;9.090;2024-02-28T07:33:17;7.10;;;6.90;;
20179;SDS011;10249;48.900;9.090;2024-02-28T07:35:44;7.63;;;7.37;;
20179;SDS011;10249;48.900;9.090;2024-02-28T07:38:12;7.50;;;7.30;;
20179;SDS011;10249;48.900;9.090;2024-02-28T07:40:39;7.47;;;7.27;;
20179;SDS011;10249;48.900;9.090;2024-02-28T07:43:06;7.13;;;6.93;;
20179;SDS011;10249;48.900;9.090;2024-02-28T07:45:33;7.20;;;7.00;;
20179;SDS011;10249;48.900;9.090;2024-02-28T07:48:00;7.50;;;7.30;;
20179;SDS011;10249;48.900;9.090;2024-02-28T07:50:28;9.57;;;8.73;;
20179;SDS011;10249;48.900;9.090;2024-02-28T07:52:55;8.27;;;7.97;;
20179;SDS011;10249;48.900;9.090;2024-02-28T07:55:23;11.30;;;10.80;;
20179;SDS011;10249;48.900;9.090;2024-02-28T07:57:51;7.90;;;7.57;;
20179;SDS011;10249;48.900;9.090;2024-02-28T08:00:17;8.53;;;8.13;;
20179;SDS011;10249;48.900;9.090;2024-02-28T08:02:45;7.63;;;7.43;;
20179;SDS011;10249;48.900;9.090;2024-02-28T08:05:12;8.17;;;7.87;;
20179;SDS011;10249;48.900;9.090;2024-02-28T08:07:41;7.83;;;7.63;;
20179;SDS011;10249;48.900;9.090;2024-02-28T08:10:08;7.67;;;7.47;;
20179;SDS011;10249;48.900;9.090;2024-02-28T08:12:36;8.27;;;7.97;;
20179;SDS011;10249;48.900;9.090;2024-02-28T08:15:03;7.63;;;7.43;;
20179;SDS011;10249;48.900;9.090;2024-02-28T08:17:31;7.60;;;7.40;;
20179;SDS011;10249;48.900;9.090;2024-02-28T08:19:58;7.73;;;7.53;;
20179;SDS011;10249;48.900;9.090;2024-02-28T08:22:25;8.53;;;8.23;;
20179;SDS011;10249;48.900;9.090;2024-02-28T08:24:54;8.97;;;8.67;;
20179;SDS011;10249;48.900;9.090;2024-02-28T08:27:21;10.63;;;9.90;;
20179;SDS011;10249;48.900;9.090;2024-02-28T08:29:50;8.57;;;8.27;;
20179;SDS011;10249;48.900;9.090;2024-02-28T08:32:17;9.10;;;8.70;;
20179;SDS011;10249;48.900;9.090;2024-02-28T08:34:45;9.30;;;9.00;;
20179;SDS011;10249;48.900;9.090;2024-02-28T08:37:12;9.20;;;8.90;;
20179;SDS011;10249;48.900;9.090;2024-02-28T08:39:39;8.00;;;7.80;;
20179;SDS011;10249;48.900;9.090;2024-02-28T08:42:08;8.83;;;8.53;;
20179;SDS011;10249;48.900;9.090;2024-02-28T08:44:35;8.70;;;8.40;;
20179;SDS011;10249;48.900;9.090;2024-02-28T08:47:02;7.77;;;7.57;;
20179;SDS011;10249;48.900;9.090;2024-02-28T08:49:30;8.27;;;7.97;;
20179;SDS011;10249;48.900;9.090;2024-02-28T08:51:57;9.43;;;9.13;;
20179;SDS011;10249;48.900;9.090;2024-02-28T08:54:24;7.60;;;7.40;;
20179;SDS011;10249;48.900;9.090;2024-02-28T08:56:51;10.67;;;10.07;;
20179;SDS011;10249;48.900;9.090;2024-02-28T08:59:20;7.73;;;7.53;;
20179;SDS011;10249;48.900;9.090;2024-02-28T09:01:47;9.33;;;9.03;;
20179;SDS011;10249;48.900;9.090;2024-02-28T09:04:14;7.63;;;7.43;;
20179;SDS011;10249;48.900;9.090;2024-02-28T09:06:41;9.97;;;9.40;;
20179;SDS011;10249;48.900;9.090;2024-02-28T09:09:09;10.97;;;10.10;;
20179;SDS011;10249;48.900;9.090;2024-02-28T09:11:36;8.70;;;8.40;;
20179;SDS011;10249;48.900;9.090;2024-02-28T09:14:03;8.60;;;8.30;;
20179;SDS011;10249;48.900;9.090;2024-02-28T09:16:31;9.23;;;8.90;;
20179;SDS011;10249;48.900;9.090;2024-02-28T09:18:58;8.20;;;7.90;;
20179;SDS011;10249;48.900;9.090;2024-02-28T09:21:26;8.13;;;7.83;;
20179;SDS011;10249;48.900;9.090;2024-02-28T09:23:53;10.27;;;9.63;;
20179;SDS011;10249;48.900;9.090;2024-02-28T09:26:20;10.37;;;9.53;;
20179;SDS011;10249;48.900;9.090;2024-02-28T09:28:47;7.70;;;7.50;;
20179;SDS011;10249;48.900;9.090;2024-02-28T09:31:14;7.43;;;7.23;;
20179;SDS011;10249;48.900;9.090;2024-02-28T09:33:42;8.60;;;8.30;;
20179;SDS011;10249;48.900;9.090;2024-02-28T09:36:11;7.13;;;6.93;;
20179;SDS011;10249;48.900;9.090;2024-02-28T09:38:38;7.50;;;7.30;;
20179;SDS011;10249;48.900;9.090;2024-02-28T09:41:06;9.40;;;9.00;;
20179;SDS011;10249;48.900;9.090;2024-02-28T09:43:37;7.50;;;7.30;;
20179;SDS011;10249;48.900;9.090;2024-02-28T09:46:05;11.80;;;11.40;;
20179;SDS011;10249;48.900;9.090;2024-02-28T09:48:32;7.77;;;7.57;;
20179;SDS011;10249;48.900;9.090;2024-02-28T09:51:01;7.27;;;7.07;;
20179;SDS011;10249;48.900;9.090;2024-02-28T09:53:28;7.40;;;7.20;;
20179;SDS011;10249;48.900;9.090;2024-02-28T09:55:55;8.23;;;7.93;;
20179;SDS011;10249;48.900;9.090;2024-02-28T09:58:22;7.00;;;6.80;;
20179;SDS011;10249;48.900;9.090;2024-02-28T10:00:49;7.27;;;7.07;;
20179;SDS011;10249;48.900;9.090;2024-02-28T10:03:17;13.47;;;12.43;;
20179;SDS011;10249;48.900;9.090;2024-02-28T10:05:45;7.20;;;7.00;;
20179;SDS011;10249;48.900;9.090;2024-02-28T10:08:13;7.17;;;6.97;;
20179;SDS011;10249;48.900;9.090;2024-02-28T10:10:49;7.70;;;7.40;;
20179;SDS011;10249;48.900;9.090;2024-02-28T10:13:19;6.93;;;6.73;;
20179;SDS011;10249;48.900;9.090;2024-02-28T10:15:47;6.97;;;6.77;;
20179;SDS011;10249;48.900;9.090;2024-02-28T10:18:14;7.47;;;7.27;;
20179;SDS011;10249;48.900;9.090;2024-02-28T10:20:41;7.90;;;7.70;;
20179;SDS011;10249;48.900;9.090;2024-02-28T10:23:09;8.13;;;7.87;;
20179;SDS011;10249;48.900;9.090;2024-02-28T10:25:43;8.30;;;8.00;;
20179;SDS011;10249;48.900;9.090;2024-02-28T10:28:10;8.47;;;8.17;;
20179;SDS011;10249;48.900;9.090;2024-02-28T10:30:39;9.43;;;9.13;;
20179;SDS011;10249;48.900;9.090;2024-02-28T10:33:09;10.97;;;10.47;;
20179;SDS011;10249;48.900;9.090;2024-02-28T10:35:36;8.73;;;8.43;;
20179;SDS011;10249;48.900;9.090;2024-02-28T10:38:03;9.67;;;9.27;;
20179;SDS011;10249;48.900;9.090;2024-02-28T10:40:31;9.07;;;8.77;;
20179;SDS011;10249;48.900;9.090;2024-02-28T10:42:59;8.67;;;8.37;;
20179;SDS011;10249;48.900;9.090;2024-02-28T10:45:26;9.37;;;9.07;;
20179;SDS011;10249;48.900;9.090;2024-02-28T10:47:56;9.10;;;8.80;;
20179;SDS011;10249;48.900;9.090;2024-02-28T10:50:24;9.20;;;8.90;;
20179;SDS011;10249;48.900;9.090;2024-02-28T10:52:51;9.83;;;9.53;;
20179;SDS011;10249;48.900;9.090;2024-02-28T10:55:20;9.60;;;9.20;;
20179;SDS011;10249;48.900;9.090;2024-02-28T10:57:49;9.03;;;8.53;;
20179;SDS011;10249;48.900;9.090;2024-02-28T11:00:22;8.70;;;8.40;;
20179;SDS011;10249;48.900;9.090;2024-02-28T11:02:49;8.73;;;8.43;;
20179;SDS011;10249;48.900;9.090;2024-02-28T11:05:17;10.10;;;9.80;;
20179;SDS011;10249;48.900;9.090;2024-02-28T11:07:44;9.70;;;9.40;;
20179;SDS011;10249;48.900;9.090;2024-02-28T11:10:12;10.30;;;9.90;;
20179;SDS011;10249;48.900;9.090;2024-02-28T11:12:39;9.43;;;9.13;;
20179;SDS011;10249;48.900;9.090;2024-02-28T11:15:15;10.20;;;9.80;;
20179;SDS011;10249;48.900;9.090;2024-02-28T11:17:47;8.80;;;8.50;;
20179;SDS011;10249;48.900;9.090;2024-02-28T11:20:14;9.03;;;8.73;;
20179;SDS011;10249;48.900;9.090;2024-02-28T11:22:41;10.13;;;9.73;;
20179;SDS011;10249;48.900;9.090;2024-02-28T11:25:09;10.67;;;10.27;;
20179;SDS011;10249;48.900;9.090;2024-02-28T11:27:44;9.20;;;8.90;;
20179;SDS011;10249;48.900;9.090;2024-02-28T11:30:13;9.03;;;8.73;;
20179;SDS011;10249;48.900;9.090;2024-02-28T11:32:40;9.10;;;8.80;;
20179;SDS011;10249;48.900;9.090;2024-02-28T11:35:09;11.67;;;11.27;;
20179;SDS011;10249;48.900;9.090;2024-02-28T11:37:37;10.53;;;10.13;;
20179;SDS011;10249;48.900;9.090;2024-02-28T11:40:06;8.97;;;8.67;;
20179;SDS011;10249;48.900;9.090;2024-02-28T11:42:35;10.77;;;10.37;;
20179;SDS011;10249;48.900;9.090;2024-02-28T11:45:02;10.03;;;9.63;;
20179;SDS011;10249;48.900;9.090;2024-02-28T11:47:31;10.10;;;9.80;;
20179;SDS011;10249;48.900;9.090;2024-02-28T11:49:58;9.10;;;8.80;;
20179;SDS011;10249;48.900;9.090;2024-02-28T11:52:27;8.80;;;8.50;;
20179;SDS011;10249;48.900;9.090;2024-02-28T11:54:55;9.20;;;8.90;;
20179;SDS011;10249;48.900;9.090;2024-02-28T11:57:22;10.00;;;9.70;;
20179;SDS011;10249;48.900;9.090;2024-02-28T11:59:49;9.30;;;9.00;;
20179;SDS011;10249;48.900;9.090;2024-02-28T12:02:17;8.97;;;8.67;;
20179;SDS011;10249;48.900;9.090;2024-02-28T12:04:44;8.50;;;8.20;;
20179;SDS011;10249;48.900;9.090;2024-02-28T12:07:15;10.80;;;10.30;;
20179;SDS011;10249;48.900;9.090;2024-02-28T12:09:43;8.80;;;8.50;;
20179;SDS011;10249;48.900;9.090;2024-02-28T12:12:11;19.47;;;18.87;;
20179;SDS011;10249;48.900;9.090;2024-02-28T12:14:39;10.47;;;10.07;;
20179;SDS011;10249;48.900;9.090;2024-02-28T12:17:08;9.30;;;9.00;;
20179;SDS011;10249;48.900;9.090;2024-02-28T12:19:35;9.40;;;9.10;;
20179;SDS011;10249;48.900;9.090;2024-02-28T12:22:02;10.77;;;10.03;;
20179;SDS011;10249;48.900;9.090;2024-02-28T12:24:29;13.13;;;12.13;;
20179;SDS011;10249;48.900;9.090;2024-02-28T12:26:57;9.10;;;8.80;;
20179;SDS011;10249;48.900;9.090;2024-02-28T12:29:25;9.90;;;9.60;;
20179;SDS011;10249;48.900;9.090;2024-02-28T12:31:52;8.80;;;8.50;;
20179;SDS011;10249;48.900;9.090;2024-02-28T12:34:19;9.00;;;8.70;;
20179;SDS011;10249;48.900;9.090;2024-02-28T12:36:46;9.40;;;9.10;;
20179;SDS011;10249;48.900;9.090;2024-02-28T12:39:13;8.93;;;8.63;;
20179;SDS011;10249;48.900;9.090;2024-02-28T12:41:40;9.73;;;9.43;;
20179;SDS011;10249;48.900;9.090;2024-02-28T12:44:09;9.20;;;8.90;;
20179;SDS011;10249;48.900;9.090;2024-02-28T12:46:36;8.90;;;8.60;;
20179;SDS011;10249;48.900;9.090;2024-02-28T12:49:04;9.00;;;8.70;;
20179;SDS011;10249;48.900;9.090;2024-02-28T12:51:39;9.50;;;9.20;;
20179;SDS011;10249;48.900;9.090;2024-02-28T12:54:06;9.20;;;8.90;;
20179;SDS011;10249;48.900;9.090;2024-02-28T12:56:34;9.80;;;9.50;;
20179;SDS011;10249;48.900;9.090;2024-02-28T12:59:01;9.60;;;9.30;;
20179;SDS011;10249;48.900;9.090;2024-02-28T13:01:29;9.90;;;9.60;;
20179;SDS011;10249;48.900;9.090;2024-02-28T13:03:56;9.57;;;9.27;;
20179;SDS011;10249;48.900;9.090;2024-02-28T13:06:24;10.83;;;10.00;;
20179;SDS011;10249;48.900;9.090;2024-02-28T13:08:51;9.67;;;9.37;;
20179;SDS011;10249;48.900;9.090;2024-02-28T13:11:19;10.00;;;9.60;;
20179;SDS011;10249;48.900;9.090;2024-02-28T13:13:46;10.40;;;10.00;;
20179;SDS011;10249;48.900;9.090;2024-02-28T13:16:14;10.43;;;10.03;;
20179;SDS011;10249;48.900;9.090;2024-02-28T13:18:42;10.90;;;10.50;;
20179;SDS011;10249;48.900;9.090;2024-02-28T13:21:10;10.70;;;10.30;;
20179;SDS011;10249;48.900;9.090;2024-02-28T13:23:44;11.10;;;10.70;;
20179;SDS011;10249;48.900;9.090;2024-02-28T13:26:13;11.03;;;10.63;;
20179;SDS011;10249;48.900;9.090;2024-02-28T13:28:42;10.93;;;10.53;;
20179;SDS011;10249;48.900;9.090;2024-02-28T13:31:10;11.10;;;10.70;;
20179;SDS011;10249;48.900;9.090;2024-02-28T13:33:37;10.67;;;10.27;;
20179;SDS011;10249;48.900;9.090;2024-02-28T13:36:07;10.70;;;10.30;;
20179;SDS011;10249;48.900;9.090;2024-02-28T13:38:35;10.70;;;10.30;;
20179;SDS011;10249;48.900;9.090;2024-02-28T13:41:02;11.23;;;10.83;;
20179;SDS011;10249;48.900;9.090;2024-02-28T13:43:29;11.47;;;11.07;;
20179;SDS011;10249;48.900;9.090;2024-02-28T13:45:56;12.00;;;11.50;;
20179;SDS011;10249;48.900;9.090;2024-02-28T13:48:26;12.27;;;11.77;;
20179;SDS011;10249;48.900;9.090;2024-02-28T13:50:55;12.50;;;12.00;;
20179;SDS011;10249;48.900;9.090;2024-02-28T13:53:23;13.10;;;12.50;;
20179;SDS011;10249;48.900;9.090;2024-02-28T13:55:51;13.13;;;12.53;;
20179;SDS011;10249;48.900;9.090;2024-02-28T13:58:18;13.57;;;12.97;;
20179;SDS011;10249;48.900;9.090;2024-02-28T14:00:45;13.10;;;12.50;;
20179;SDS011;10249;48.900;9.090;2024-02-28T14:03:13;12.77;;;12.27;;
20179;SDS011;10249;48.900;9.090;2024-02-28T14:05:40;12.50;;;12.00;;
20179;SDS011;10249;48.900;9.090;2024-02-28T14:08:07;12.53;;;12.03;;
20179;SDS011;10249;48.900;9.090;2024-02-28T14:10:38;12.80;;;12.30;;
20179;SDS011;10249;48.900;9.090;2024-02-28T14:13:06;12.43;;;11.93;;
20179;SDS011;10249;48.900;9.090;2024-02-28T14:15:34;12.23;;;11.73;;
20179;SDS011;10249;48.900;9.090;2024-02-28T14:18:02;12.80;;;12.30;;
20179;SDS011;10249;48.900;9.090;2024-02-28T14:20:29;13.20;;;12.60;;
20179;SDS011;10249;48.900;9.090;2024-02-28T14:22:56;13.33;;;12.73;;
20179;SDS011;10249;48.900;9.090;2024-02-28T14:25:24;13.47;;;12.87;;
20179;SDS011;10249;48.900;9.090;2024-02-28T14:27:53;13.80;;;13.20;;
20179;SDS011;10249;48.900;9.090;2024-02-28T14:30:20;13.50;;;12.90;;
20179;SDS011;10249;48.900;9.090;2024-02-28T14:32:49;13.70;;;13.10;;
20179;SDS011;10249;48.900;9.090;2024-02-28T14:35:16;13.70;;;13.10;;
20179;SDS011;10249;48.900;9.090;2024-02-28T14:37:44;13.93;;;13.33;;
20179;SDS011;10249;48.900;9.090;2024-02-28T14:40:12;14.43;;;13.73;;
20179;SDS011;10249;48.900;9.090;2024-02-28T14:42:39;14.60;;;13.90;;
20179;SDS011;10249;48.900;9.090;2024-02-28T14:45:09;14.80;;;14.10;;